sensor_id;sensor_type;location;lat;lon;timestamp;pressure;altitude;pressure_sealevel;temperature;humidity
37776;BME280;23614;33.774;130.514;2022-12-07T00:01:21;101885.98;;;9.70;34.67
37776;BME280;23614;33.774;130.514;2022-12-07T00:03:47;101901.78;;;9.15;35.30
37776;BME280;23614;33.774;130.514;2022-12-07T00:06:13;101886.24;;;10.42;33.31
37776;BME280;23614;33.774;130.514;2022-12-07T00:08:38;101893.06;;;10.22;32.97
37776;BME280;23614;33.774;130.514;2022-12-07T00:11:04;101899.97;;;10.09;33.02
37776;BME280;23614;33.774;130.514;2022-12-07T00:13:29;101898.89;;;9.66;33.88
37776;BME280;23614;33.774;130.514;2022-12-07T00:15:55;101892.35;;;10.04;33.77
37776;BME280;23614;33.774;130.514;2022-12-07T00:18:21;101891.38;;;10.78;32.80
37776;BME280;23614;33.774;130.514;2022-12-07T00:20:47;101884.56;;;9.92;33.59
37776;BME280;23614;33.774;130.514;2022-12-07T00:23:13;101883.99;;;10.90;32.38
37776;BME280;23614;33.774;130.514;2022-12-07T00:25:39;101876.41;;;11.37;31.18
37776;BME280;23614;33.774;130.514;2022-12-07T00:28:05;101882.24;;;11.43;30.75
37776;BME280;23614;33.774;130.514;2022-12-07T00:30:31;101895.70;;;9.90;33.34
37776;BME280;23614;33.774;130.514;2022-12-07T00:32:57;101899.24;;;10.76;32.47
37776;BME280;23614;33.774;130.514;2022-12-07T00:35:23;101897.07;;;9.65;33.56
37776;BME280;23614;33.774;130.514;2022-12-07T00:37:49;101901.95;;;10.03;33.34
37776;BME280;23614;33.774;130.514;2022-12-07T00:40:15;101900.24;;;9.93;32.35
37776;BME280;23614;33.774;130.514;2022-12-07T00:42:41;101901.01;;;10.65;32.47
37776;BME280;23614;33.774;130.514;2022-12-07T00:45:08;101909.74;;;10.61;33.10
37776;BME280;23614;33.774;130.514;2022-12-07T00:47:33;101901.02;;;10.99;32.84
37776;BME280;23614;33.774;130.514;2022-12-07T00:49:59;101894.29;;;12.16;31.59
37776;BME280;23614;33.774;130.514;2022-12-07T00:52:25;101902.59;;;10.84;33.64
37776;BME280;23614;33.774;130.514;2022-12-07T00:54:51;101907.47;;;11.21;33.13
37776;BME280;23614;33.774;130.514;2022-12-07T00:57:17;101910.08;;;10.53;34.05
37776;BME280;23614;33.774;130.514;2022-12-07T00:59:43;101907.30;;;10.37;34.42
37776;BME280;23614;33.774;130.514;2022-12-07T01:02:09;101914.67;;;11.43;33.17
37776;BME280;23614;33.774;130.514;2022-12-07T01:04:36;101924.73;;;10.52;33.84
37776;BME280;23614;33.774;130.514;2022-12-07T01:07:01;101913.44;;;10.40;33.57
37776;BME280;23614;33.774;130.514;2022-12-07T01:09:27;101914.58;;;10.54;33.50
37776;BME280;23614;33.774;130.514;2022-12-07T01:11:54;101922.98;;;10.63;32.80
37776;BME280;23614;33.774;130.514;2022-12-07T01:14:19;101918.24;;;11.00;32.70
37776;BME280;23614;33.774;130.514;2022-12-07T01:16:45;101920.73;;;11.25;31.92
37776;BME280;23614;33.774;130.514;2022-12-07T01:19:11;101923.75;;;10.75;32.73
37776;BME280;23614;33.774;130.514;2022-12-07T01:21:37;101911.97;;;11.54;31.41
37776;BME280;23614;33.774;130.514;2022-12-07T01:24:04;101911.97;;;11.29;31.61
37776;BME280;23614;33.774;130.514;2022-12-07T01:26:29;101914.51;;;11.12;31.81
37776;BME280;23614;33.774;130.514;2022-12-07T01:28:55;101916.96;;;10.96;32.01
37776;BME280;23614;33.774;130.514;2022-12-07T01:31:22;101906.84;;;10.74;32.75
37776;BME280;23614;33.774;130.514;2022-12-07T01:33:49;101908.47;;;11.36;32.06
37776;BME280;23614;33.774;130.514;2022-12-07T01:36:18;101918.44;;;11.02;32.44
37776;BME280;23614;33.774;130.514;2022-12-07T01:38:39;101908.59;;;9.96;33.97
37776;BME280;23614;33.774;130.514;2022-12-07T01:41:05;101909.08;;;10.53;33.30
37776;BME280;23614;33.774;130.514;2022-12-07T01:43:32;101896.20;;;10.75;32.96
37776;BME280;23614;33.774;130.514;2022-12-07T01:45:57;101890.13;;;11.78;31.67
37776;BME280;23614;33.774;130.514;2022-12-07T01:48:26;101897.34;;;10.53;32.72
37776;BME280;23614;33.774;130.514;2022-12-07T01:50:50;101888.03;;;10.30;33.07
37776;BME280;23614;33.774;130.514;2022-12-07T01:53:15;101888.48;;;11.15;32.47
37776;BME280;23614;33.774;130.514;2022-12-07T01:55:44;101889.23;;;10.79;32.72
37776;BME280;23614;33.774;130.514;2022-12-07T01:58:08;101874.95;;;11.85;31.47
37776;BME280;23614;33.774;130.514;2022-12-07T02:00:33;101884.12;;;11.26;32.66
37776;BME280;23614;33.774;130.514;2022-12-07T02:03:05;101872.07;;;11.47;32.58
37776;BME280;23614;33.774;130.514;2022-12-07T02:05:26;101872.69;;;12.26;32.16
37776;BME280;23614;33.774;130.514;2022-12-07T02:07:53;101866.49;;;11.98;32.44
37776;BME280;23614;33.774;130.514;2022-12-07T02:10:20;101868.20;;;11.05;33.40
37776;BME280;23614;33.774;130.514;2022-12-07T02:12:43;101872.39;;;12.43;31.66
37776;BME280;23614;33.774;130.514;2022-12-07T02:15:10;101865.72;;;12.27;30.69
37776;BME280;23614;33.774;130.514;2022-12-07T02:17:43;101867.18;;;12.56;30.69
37776;BME280;23614;33.774;130.514;2022-12-07T02:20:14;101871.62;;;12.34;30.73
37776;BME280;23614;33.774;130.514;2022-12-07T02:22:41;101857.46;;;12.57;30.75
37776;BME280;23614;33.774;130.514;2022-12-07T02:24:57;101866.73;;;11.47;31.97
37776;BME280;23614;33.774;130.514;2022-12-07T02:27:34;101846.28;;;11.45;32.46
37776;BME280;23614;33.774;130.514;2022-12-07T02:29:53;101847.89;;;11.05;33.38
37776;BME280;23614;33.774;130.514;2022-12-07T02:32:15;101844.99;;;10.81;33.82
37776;BME280;23614;33.774;130.514;2022-12-07T02:34:44;101845.75;;;11.57;32.68
37776;BME280;23614;33.774;130.514;2022-12-07T02:37:09;101838.31;;;11.50;33.50
37776;BME280;23614;33.774;130.514;2022-12-07T02:39:33;101826.45;;;11.66;33.35
37776;BME280;23614;33.774;130.514;2022-12-07T02:41:59;101824.12;;;11.44;33.67
37776;BME280;23614;33.774;130.514;2022-12-07T02:44:24;101822.38;;;11.68;33.65
37776;BME280;23614;33.774;130.514;2022-12-07T02:46:51;101817.12;;;11.22;34.73
37776;BME280;23614;33.774;130.514;2022-12-07T02:49:13;101816.25;;;11.97;33.98
37776;BME280;23614;33.774;130.514;2022-12-07T02:51:42;101804.46;;;11.91;34.10
37776;BME280;23614;33.774;130.514;2022-12-07T02:54:12;101804.06;;;11.93;34.72
37776;BME280;23614;33.774;130.514;2022-12-07T02:56:38;101806.38;;;11.96;34.47
37776;BME280;23614;33.774;130.514;2022-12-07T02:59:05;101805.06;;;11.97;34.34
37776;BME280;23614;33.774;130.514;2022-12-07T03:01:32;101805.31;;;12.55;33.82
37776;BME280;23614;33.774;130.514;2022-12-07T03:03:58;101796.31;;;11.53;34.67
37776;BME280;23614;33.774;130.514;2022-12-07T03:06:20;101800.69;;;12.26;34.00
37776;BME280;23614;33.774;130.514;2022-12-07T03:08:50;101797.19;;;10.88;36.37
37776;BME280;23614;33.774;130.514;2022-12-07T03:11:10;101803.65;;;11.24;35.73
37776;BME280;23614;33.774;130.514;2022-12-07T03:13:37;101792.74;;;12.04;34.60
37776;BME280;23614;33.774;130.514;2022-12-07T03:16:05;101783.46;;;12.03;34.66
37776;BME280;23614;33.774;130.514;2022-12-07T03:18:28;101774.75;;;12.57;34.00
37776;BME280;23614;33.774;130.514;2022-12-07T03:20:53;101763.35;;;12.60;33.51
37776;BME280;23614;33.774;130.514;2022-12-07T03:23:18;101773.37;;;12.27;34.08
37776;BME280;23614;33.774;130.514;2022-12-07T03:25:45;101764.59;;;12.34;34.28
37776;BME280;23614;33.774;130.514;2022-12-07T03:28:10;101761.96;;;12.13;34.10
37776;BME280;23614;33.774;130.514;2022-12-07T03:30:39;101761.12;;;12.14;33.85
37776;BME280;23614;33.774;130.514;2022-12-07T03:33:04;101746.84;;;12.49;33.99
37776;BME280;23614;33.774;130.514;2022-12-07T03:35:30;101746.96;;;12.72;33.88
37776;BME280;23614;33.774;130.514;2022-12-07T03:37:57;101745.87;;;11.87;35.27
37776;BME280;23614;33.774;130.514;2022-12-07T03:40:25;101740.66;;;12.20;35.19
37776;BME280;23614;33.774;130.514;2022-12-07T03:42:45;101742.96;;;12.36;35.12
37776;BME280;23614;33.774;130.514;2022-12-07T03:45:12;101749.95;;;12.23;35.37
37776;BME280;23614;33.774;130.514;2022-12-07T03:47:45;101736.19;;;12.04;35.87
37776;BME280;23614;33.774;130.514;2022-12-07T03:50:09;101729.30;;;12.72;34.73
37776;BME280;23614;33.774;130.514;2022-12-07T03:52:33;101737.79;;;12.04;35.44
37776;BME280;23614;33.774;130.514;2022-12-07T03:54:58;101726.94;;;12.70;34.41
37776;BME280;23614;33.774;130.514;2022-12-07T03:57:22;101734.82;;;12.33;33.14
37776;BME280;23614;33.774;130.514;2022-12-07T03:59:47;101726.37;;;11.63;33.77
37776;BME280;23614;33.774;130.514;2022-12-07T04:02:14;101726.87;;;11.68;34.25
37776;BME280;23614;33.774;130.514;2022-12-07T04:04:39;101723.92;;;12.16;33.88
37776;BME280;23614;33.774;130.514;2022-12-07T04:07:06;101732.20;;;12.34;33.49
37776;BME280;23614;33.774;130.514;2022-12-07T04:09:31;101721.09;;;11.96;34.40
37776;BME280;23614;33.774;130.514;2022-12-07T04:11:58;101719.09;;;12.59;33.80
37776;BME280;23614;33.774;130.514;2022-12-07T04:14:23;101719.14;;;12.25;34.14
37776;BME280;23614;33.774;130.514;2022-12-07T04:16:52;101711.83;;;12.74;33.98
37776;BME280;23614;33.774;130.514;2022-12-07T04:19:15;101708.02;;;12.70;34.38
37776;BME280;23614;33.774;130.514;2022-12-07T04:21:42;101709.83;;;12.26;34.96
37776;BME280;23614;33.774;130.514;2022-12-07T04:24:07;101721.45;;;11.76;35.52
37776;BME280;23614;33.774;130.514;2022-12-07T04:26:33;101698.90;;;12.56;34.45
37776;BME280;23614;33.774;130.514;2022-12-07T04:28:59;101695.61;;;12.50;34.04
37776;BME280;23614;33.774;130.514;2022-12-07T04:31:25;101699.85;;;12.57;33.42
37776;BME280;23614;33.774;130.514;2022-12-07T04:33:51;101690.21;;;12.74;33.17
37776;BME280;23614;33.774;130.514;2022-12-07T04:36:17;101692.17;;;12.58;33.79
37776;BME280;23614;33.774;130.514;2022-12-07T04:38:43;101697.04;;;12.62;33.95
37776;BME280;23614;33.774;130.514;2022-12-07T04:41:11;101692.78;;;12.10;34.74
37776;BME280;23614;33.774;130.514;2022-12-07T04:43:35;101688.82;;;12.36;34.57
37776;BME280;23614;33.774;130.514;2022-12-07T04:46:01;101686.50;;;12.60;34.92
37776;BME280;23614;33.774;130.514;2022-12-07T04:48:27;101689.83;;;12.69;34.97
37776;BME280;23614;33.774;130.514;2022-12-07T04:50:53;101684.64;;;12.98;34.17
37776;BME280;23614;33.774;130.514;2022-12-07T04:53:19;101694.09;;;12.35;34.96
37776;BME280;23614;33.774;130.514;2022-12-07T04:55:46;101691.34;;;12.33;34.91
37776;BME280;23614;33.774;130.514;2022-12-07T04:58:11;101683.14;;;12.30;35.15
37776;BME280;23614;33.774;130.514;2022-12-07T05:00:37;101680.64;;;12.59;34.81
37776;BME280;23614;33.774;130.514;2022-12-07T05:03:03;101667.53;;;13.40;34.09
37776;BME280;23614;33.774;130.514;2022-12-07T05:05:29;101667.49;;;12.63;34.83
37776;BME280;23614;33.774;130.514;2022-12-07T05:07:55;101672.88;;;13.13;34.30
37776;BME280;23614;33.774;130.514;2022-12-07T05:10:21;101669.40;;;12.66;35.35
37776;BME280;23614;33.774;130.514;2022-12-07T05:12:48;101668.74;;;13.39;34.28
37776;BME280;23614;33.774;130.514;2022-12-07T05:15:13;101667.89;;;13.32;34.70
37776;BME280;23614;33.774;130.514;2022-12-07T05:17:40;101663.55;;;13.20;35.47
37776;BME280;23614;33.774;130.514;2022-12-07T05:20:06;101672.80;;;12.45;36.78
37776;BME280;23614;33.774;130.514;2022-12-07T05:22:31;101675.89;;;12.97;36.23
37776;BME280;23614;33.774;130.514;2022-12-07T05:24:57;101683.38;;;12.64;37.35
37776;BME280;23614;33.774;130.514;2022-12-07T05:27:24;101685.82;;;12.70;37.35
37776;BME280;23614;33.774;130.514;2022-12-07T05:29:51;101694.92;;;12.50;37.09
37776;BME280;23614;33.774;130.514;2022-12-07T05:32:15;101692.88;;;12.81;37.27
37776;BME280;23614;33.774;130.514;2022-12-07T05:34:41;101692.41;;;12.77;37.82
37776;BME280;23614;33.774;130.514;2022-12-07T05:37:07;101682.04;;;12.95;37.38
37776;BME280;23614;33.774;130.514;2022-12-07T05:39:33;101689.61;;;12.56;38.13
37776;BME280;23614;33.774;130.514;2022-12-07T05:41:59;101696.02;;;12.37;38.23
37776;BME280;23614;33.774;130.514;2022-12-07T05:44:25;101696.16;;;12.25;38.17
37776;BME280;23614;33.774;130.514;2022-12-07T05:46:51;101680.98;;;13.23;36.85
37776;BME280;23614;33.774;130.514;2022-12-07T05:49:17;101684.01;;;13.58;35.98
37776;BME280;23614;33.774;130.514;2022-12-07T05:51:43;101685.16;;;13.69;35.28
37776;BME280;23614;33.774;130.514;2022-12-07T05:54:09;101691.65;;;13.40;35.09
37776;BME280;23614;33.774;130.514;2022-12-07T05:56:35;101684.96;;;12.72;36.30
37776;BME280;23614;33.774;130.514;2022-12-07T05:59:01;101691.28;;;13.60;35.43
37776;BME280;23614;33.774;130.514;2022-12-07T06:01:27;101696.81;;;13.17;35.21
37776;BME280;23614;33.774;130.514;2022-12-07T06:03:53;101698.70;;;11.98;37.41
37776;BME280;23614;33.774;130.514;2022-12-07T06:06:19;101696.01;;;12.25;37.28
37776;BME280;23614;33.774;130.514;2022-12-07T06:08:45;101695.28;;;12.50;36.78
37776;BME280;23614;33.774;130.514;2022-12-07T06:11:11;101694.89;;;12.83;36.70
37776;BME280;23614;33.774;130.514;2022-12-07T06:13:37;101699.82;;;12.49;35.42
37776;BME280;23614;33.774;130.514;2022-12-07T06:16:03;101697.65;;;13.04;33.33
37776;BME280;23614;33.774;130.514;2022-12-07T06:18:30;101697.98;;;12.64;33.94
37776;BME280;23614;33.774;130.514;2022-12-07T06:20:55;101697.99;;;12.61;34.40
37776;BME280;23614;33.774;130.514;2022-12-07T06:23:21;101689.77;;;13.08;34.11
37776;BME280;23614;33.774;130.514;2022-12-07T06:25:48;101680.77;;;13.12;33.88
37776;BME280;23614;33.774;130.514;2022-12-07T06:28:12;101681.64;;;12.85;34.07
37776;BME280;23614;33.774;130.514;2022-12-07T06:30:38;101687.47;;;13.54;33.13
37776;BME280;23614;33.774;130.514;2022-12-07T06:33:04;101683.31;;;13.32;32.84
37776;BME280;23614;33.774;130.514;2022-12-07T06:35:30;101690.19;;;12.36;33.29
37776;BME280;23614;33.774;130.514;2022-12-07T06:37:56;101701.02;;;11.55;36.28
37776;BME280;23614;33.774;130.514;2022-12-07T06:40:22;101689.10;;;12.60;35.41
37776;BME280;23614;33.774;130.514;2022-12-07T06:42:48;101697.98;;;12.57;34.56
37776;BME280;23614;33.774;130.514;2022-12-07T06:45:14;101711.04;;;12.03;34.63
37776;BME280;23614;33.774;130.514;2022-12-07T06:47:40;101700.27;;;11.70;35.66
37776;BME280;23614;33.774;130.514;2022-12-07T06:50:07;101694.33;;;11.96;35.91
37776;BME280;23614;33.774;130.514;2022-12-07T06:52:32;101705.68;;;12.26;35.89
37776;BME280;23614;33.774;130.514;2022-12-07T06:54:58;101701.78;;;12.90;35.88
37776;BME280;23614;33.774;130.514;2022-12-07T06:57:24;101704.76;;;12.53;36.15
37776;BME280;23614;33.774;130.514;2022-12-07T06:59:50;101701.13;;;12.79;35.74
37776;BME280;23614;33.774;130.514;2022-12-07T07:02:16;101707.64;;;12.56;36.31
37776;BME280;23614;33.774;130.514;2022-12-07T07:04:42;101718.70;;;12.41;36.10
37776;BME280;23614;33.774;130.514;2022-12-07T07:07:08;101701.77;;;12.82;34.95
37776;BME280;23614;33.774;130.514;2022-12-07T07:09:34;101701.57;;;12.62;33.14
37776;BME280;23614;33.774;130.514;2022-12-07T07:12:00;101696.89;;;12.63;34.19
37776;BME280;23614;33.774;130.514;2022-12-07T07:14:26;101708.70;;;12.61;33.50
37776;BME280;23614;33.774;130.514;2022-12-07T07:16:52;101700.56;;;12.25;33.15
37776;BME280;23614;33.774;130.514;2022-12-07T07:19:18;101697.17;;;12.36;32.88
37776;BME280;23614;33.774;130.514;2022-12-07T07:21:45;101691.59;;;12.89;33.24
37776;BME280;23614;33.774;130.514;2022-12-07T07:24:10;101692.86;;;12.77;33.32
37776;BME280;23614;33.774;130.514;2022-12-07T07:26:36;101700.44;;;12.80;33.34
37776;BME280;23614;33.774;130.514;2022-12-07T07:29:03;101707.02;;;13.36;33.03
37776;BME280;23614;33.774;130.514;2022-12-07T07:31:28;101716.12;;;12.52;33.68
37776;BME280;23614;33.774;130.514;2022-12-07T07:33:54;101703.41;;;12.54;33.16
37776;BME280;23614;33.774;130.514;2022-12-07T07:36:20;101704.00;;;12.63;31.04
37776;BME280;23614;33.774;130.514;2022-12-07T07:38:46;101706.04;;;12.61;31.70
37776;BME280;23614;33.774;130.514;2022-12-07T07:41:12;101704.14;;;12.83;32.51
37776;BME280;23614;33.774;130.514;2022-12-07T07:43:39;101713.83;;;12.22;34.17
37776;BME280;23614;33.774;130.514;2022-12-07T07:46:04;101722.33;;;11.90;35.00
37776;BME280;23614;33.774;130.514;2022-12-07T07:48:30;101716.78;;;12.50;34.67
37776;BME280;23614;33.774;130.514;2022-12-07T07:50:56;101723.96;;;11.24;36.45
37776;BME280;23614;33.774;130.514;2022-12-07T07:53:22;101725.43;;;11.74;36.05
37776;BME280;23614;33.774;130.514;2022-12-07T07:55:52;101718.83;;;11.48;35.81
37776;BME280;23614;33.774;130.514;2022-12-07T07:58:14;101720.62;;;12.32;34.54
37776;BME280;23614;33.774;130.514;2022-12-07T08:00:40;101724.52;;;12.69;34.34
37776;BME280;23614;33.774;130.514;2022-12-07T08:03:06;101722.18;;;11.82;35.03
37776;BME280;23614;33.774;130.514;2022-12-07T08:05:32;101726.21;;;11.60;35.35
37776;BME280;23614;33.774;130.514;2022-12-07T08:07:59;101736.29;;;12.24;35.27
37776;BME280;23614;33.774;130.514;2022-12-07T08:10:24;101744.32;;;12.66;34.55
37776;BME280;23614;33.774;130.514;2022-12-07T08:12:50;101766.80;;;12.14;34.64
37776;BME280;23614;33.774;130.514;2022-12-07T08:15:16;101744.64;;;12.48;35.11
37776;BME280;23614;33.774;130.514;2022-12-07T08:17:42;101734.91;;;13.13;34.03
37776;BME280;23614;33.774;130.514;2022-12-07T08:20:09;101755.38;;;12.30;34.62
37776;BME280;23614;33.774;130.514;2022-12-07T08:22:34;101755.59;;;12.46;34.46
37776;BME280;23614;33.774;130.514;2022-12-07T08:25:01;101767.10;;;11.88;34.71
37776;BME280;23614;33.774;130.514;2022-12-07T08:27:26;101772.86;;;11.33;35.31
37776;BME280;23614;33.774;130.514;2022-12-07T08:29:52;101774.29;;;12.68;33.53
37776;BME280;23614;33.774;130.514;2022-12-07T08:32:18;101770.12;;;12.16;33.19
37776;BME280;23614;33.774;130.514;2022-12-07T08:34:45;101764.93;;;12.96;32.06
37776;BME280;23614;33.774;130.514;2022-12-07T08:37:10;101775.27;;;12.18;32.33
37776;BME280;23614;33.774;130.514;2022-12-07T08:39:36;101783.24;;;11.90;33.31
37776;BME280;23614;33.774;130.514;2022-12-07T08:42:02;101783.31;;;12.68;32.06
37776;BME280;23614;33.774;130.514;2022-12-07T08:44:28;101789.07;;;11.94;33.30
37776;BME280;23614;33.774;130.514;2022-12-07T08:46:56;101786.27;;;12.55;33.08
37776;BME280;23614;33.774;130.514;2022-12-07T08:49:22;101797.42;;;11.57;34.32
37776;BME280;23614;33.774;130.514;2022-12-07T08:51:51;101797.12;;;11.76;33.99
37776;BME280;23614;33.774;130.514;2022-12-07T08:54:14;101792.87;;;11.25;34.41
37776;BME280;23614;33.774;130.514;2022-12-07T08:56:38;101796.69;;;11.53;34.55
37776;BME280;23614;33.774;130.514;2022-12-07T08:59:04;101793.13;;;12.46;33.72
37776;BME280;23614;33.774;130.514;2022-12-07T09:01:30;101793.30;;;11.71;34.37
37776;BME280;23614;33.774;130.514;2022-12-07T09:03:56;101788.55;;;11.90;33.46
37776;BME280;23614;33.774;130.514;2022-12-07T09:06:22;101784.78;;;11.71;33.72
37776;BME280;23614;33.774;130.514;2022-12-07T09:08:53;101781.71;;;11.36;34.06
37776;BME280;23614;33.774;130.514;2022-12-07T09:11:14;101786.51;;;11.37;34.21
37776;BME280;23614;33.774;130.514;2022-12-07T09:13:40;101791.39;;;11.80;33.43
37776;BME280;23614;33.774;130.514;2022-12-07T09:16:06;101800.42;;;10.96;34.50
37776;BME280;23614;33.774;130.514;2022-12-07T09:18:33;101786.71;;;11.40;33.71
37776;BME280;23614;33.774;130.514;2022-12-07T09:20:58;101782.23;;;11.91;33.33
37776;BME280;23614;33.774;130.514;2022-12-07T09:23:24;101782.01;;;12.59;32.31
37776;BME280;23614;33.774;130.514;2022-12-07T09:25:51;101784.19;;;12.40;33.11
37776;BME280;23614;33.774;130.514;2022-12-07T09:28:16;101784.86;;;11.75;34.38
37776;BME280;23614;33.774;130.514;2022-12-07T09:30:48;101795.46;;;11.83;34.68
37776;BME280;23614;33.774;130.514;2022-12-07T09:33:08;101799.71;;;12.27;34.12
37776;BME280;23614;33.774;130.514;2022-12-07T09:35:35;101801.58;;;11.19;35.06
37776;BME280;23614;33.774;130.514;2022-12-07T09:38:00;101805.12;;;12.45;33.14
37776;BME280;23614;33.774;130.514;2022-12-07T09:40:27;101802.86;;;12.58;33.13
37776;BME280;23614;33.774;130.514;2022-12-07T09:42:54;101804.09;;;11.99;33.94
37776;BME280;23614;33.774;130.514;2022-12-07T09:45:22;101805.97;;;11.96;34.60
37776;BME280;23614;33.774;130.514;2022-12-07T09:47:45;101802.31;;;11.99;33.72
37776;BME280;23614;33.774;130.514;2022-12-07T09:50:14;101808.42;;;12.31;32.95
37776;BME280;23614;33.774;130.514;2022-12-07T09:52:36;101802.50;;;11.87;34.03
37776;BME280;23614;33.774;130.514;2022-12-07T09:55:02;101822.71;;;10.93;35.61
37776;BME280;23614;33.774;130.514;2022-12-07T09:57:31;101821.18;;;11.77;34.12
37776;BME280;23614;33.774;130.514;2022-12-07T09:59:54;101824.30;;;11.62;33.32
37776;BME280;23614;33.774;130.514;2022-12-07T10:02:34;101828.33;;;11.13;33.52
37776;BME280;23614;33.774;130.514;2022-12-07T10:04:46;101822.53;;;11.10;33.60
37776;BME280;23614;33.774;130.514;2022-12-07T10:07:12;101829.64;;;11.25;33.61
37776;BME280;23614;33.774;130.514;2022-12-07T10:09:38;101832.32;;;12.08;32.79
37776;BME280;23614;33.774;130.514;2022-12-07T10:12:07;101837.94;;;12.64;32.11
37776;BME280;23614;33.774;130.514;2022-12-07T10:14:32;101844.20;;;12.99;31.26
37776;BME280;23614;33.774;130.514;2022-12-07T10:16:56;101841.32;;;12.74;31.37
37776;BME280;23614;33.774;130.514;2022-12-07T10:19:25;101838.06;;;12.64;31.78
37776;BME280;23614;33.774;130.514;2022-12-07T10:22:04;101830.89;;;11.21;32.23
37776;BME280;23614;33.774;130.514;2022-12-07T10:24:15;101824.40;;;11.25;32.15
37776;BME280;23614;33.774;130.514;2022-12-07T10:26:47;101815.50;;;11.59;31.93
37776;BME280;23614;33.774;130.514;2022-12-07T10:29:15;101817.38;;;11.77;31.55
37776;BME280;23614;33.774;130.514;2022-12-07T10:31:32;101821.84;;;12.01;31.60
37776;BME280;23614;33.774;130.514;2022-12-07T10:34:00;101828.00;;;12.55;30.76
37776;BME280;23614;33.774;130.514;2022-12-07T10:36:29;101841.01;;;11.86;31.42
37776;BME280;23614;33.774;130.514;2022-12-07T10:38:52;101834.94;;;11.68;31.15
37776;BME280;23614;33.774;130.514;2022-12-07T10:41:16;101837.05;;;11.97;31.01
37776;BME280;23614;33.774;130.514;2022-12-07T10:43:50;101842.62;;;11.97;30.63
37776;BME280;23614;33.774;130.514;2022-12-07T10:46:28;101845.89;;;12.11;30.58
37776;BME280;23614;33.774;130.514;2022-12-07T10:48:38;101843.72;;;12.12;30.65
37776;BME280;23614;33.774;130.514;2022-12-07T10:51:08;101843.24;;;11.35;31.53
37776;BME280;23614;33.774;130.514;2022-12-07T10:53:49;101856.51;;;12.26;30.56
37776;BME280;23614;33.774;130.514;2022-12-07T10:56:06;101865.00;;;12.42;30.16
37776;BME280;23614;33.774;130.514;2022-12-07T10:58:27;101868.10;;;13.08;29.17
37776;BME280;23614;33.774;130.514;2022-12-07T11:00:49;101874.93;;;12.23;30.12
37776;BME280;23614;33.774;130.514;2022-12-07T11:03:32;101876.00;;;13.24;28.87
37776;BME280;23614;33.774;130.514;2022-12-07T11:05:42;101879.28;;;13.71;28.29
37776;BME280;23614;33.774;130.514;2022-12-07T11:08:09;101874.92;;;13.17;28.52
37776;BME280;23614;33.774;130.514;2022-12-07T11:13:10;101871.45;;;12.81;28.42
37776;BME280;23614;33.774;130.514;2022-12-07T11:15:24;101874.98;;;12.80;28.37
37776;BME280;23614;33.774;130.514;2022-12-07T11:17:52;101879.10;;;12.99;28.08
37776;BME280;23614;33.774;130.514;2022-12-07T11:20:23;101883.85;;;13.17;27.97
37776;BME280;23614;33.774;130.514;2022-12-07T11:22:43;101883.58;;;13.38;27.99
37776;BME280;23614;33.774;130.514;2022-12-07T11:25:18;101880.16;;;13.18;27.84
37776;BME280;23614;33.774;130.514;2022-12-07T11:27:35;101885.46;;;13.28;27.73
37776;BME280;23614;33.774;130.514;2022-12-07T11:30:10;101888.78;;;12.40;28.62
37776;BME280;23614;33.774;130.514;2022-12-07T11:32:34;101891.90;;;12.83;27.72
37776;BME280;23614;33.774;130.514;2022-12-07T11:34:55;101890.36;;;12.17;27.79
37776;BME280;23614;33.774;130.514;2022-12-07T11:37:19;101888.02;;;12.40;27.57
37776;BME280;23614;33.774;130.514;2022-12-07T11:39:47;101878.90;;;13.40;26.53
37776;BME280;23614;33.774;130.514;2022-12-07T11:42:09;101877.29;;;12.21;27.47
37776;BME280;23614;33.774;130.514;2022-12-07T11:44:37;101874.13;;;12.45;26.79
37776;BME280;23614;33.774;130.514;2022-12-07T11:47:02;101870.93;;;11.94;27.04
37776;BME280;23614;33.774;130.514;2022-12-07T11:49:33;101867.85;;;12.48;26.64
37776;BME280;23614;33.774;130.514;2022-12-07T11:51:53;101867.54;;;12.85;26.25
37776;BME280;23614;33.774;130.514;2022-12-07T11:54:21;101872.35;;;12.20;27.06
37776;BME280;23614;33.774;130.514;2022-12-07T11:56:42;101870.29;;;13.17;26.36
37776;BME280;23614;33.774;130.514;2022-12-07T11:59:12;101869.55;;;13.28;26.03
37776;BME280;23614;33.774;130.514;2022-12-07T12:01:44;101861.76;;;13.54;25.96
37776;BME280;23614;33.774;130.514;2022-12-07T12:04:05;101857.18;;;13.14;25.98
37776;BME280;23614;33.774;130.514;2022-12-07T12:06:26;101848.60;;;12.76;26.24
37776;BME280;23614;33.774;130.514;2022-12-07T12:08:58;101847.84;;;11.87;27.13
37776;BME280;23614;33.774;130.514;2022-12-07T12:11:30;101841.15;;;12.83;26.62
37776;BME280;23614;33.774;130.514;2022-12-07T12:13:59;101845.89;;;12.54;26.70
37776;BME280;23614;33.774;130.514;2022-12-07T12:16:27;101837.69;;;13.26;25.89
37776;BME280;23614;33.774;130.514;2022-12-07T12:18:54;101841.66;;;12.51;26.56
37776;BME280;23614;33.774;130.514;2022-12-07T12:21:06;101845.51;;;12.62;26.25
37776;BME280;23614;33.774;130.514;2022-12-07T12:23:36;101853.09;;;12.56;26.14
37776;BME280;23614;33.774;130.514;2022-12-07T12:25:55;101855.75;;;13.22;25.77